sensor_id;sensor_type;location;lat;lon;timestamp;pressure;altitude;pressure_sealevel;temperature;humidity
73338;BME280;61575;49.908;35.556;2024-02-21T00:00:34;100190.50;;;-2.56;79.88
73338;BME280;61575;49.908;35.556;2024-02-21T00:03:36;100189.56;;;-2.55;80.74
73338;BME280;61575;49.908;35.556;2024-02-21T00:06:38;100189.00;;;-2.62;81.19
73338;BME280;61575;49.908;35.556;2024-02-21T00:09:40;100181.03;;;-2.60;81.26
73338;BME280;61575;49.908;35.556;2024-02-21T00:12:42;100177.63;;;-2.62;81.79
73338;BME280;61575;49.908;35.556;2024-02-21T00:15:44;100175.06;;;-2.64;81.63
73338;BME280;61575;49.908;35.556;2024-02-21T00:18:46;100165.41;;;-2.63;81.82
73338;BME280;61575;49.908;35.556;2024-02-21T00:21:48;100161.88;;;-2.62;81.54
73338;BME280;61575;49.908;35.556;2024-02-21T00:24:49;100154.97;;;-2.65;82.00
73338;BME280;61575;49.908;35.556;2024-02-21T00:27:51;100155.25;;;-2.71;82.03
73338;BME280;61575;49.908;35.556;2024-02-21T00:30:55;100155.91;;;-2.66;81.93
73338;BME280;61575;49.908;35.556;2024-02-21T00:33:57;100153.06;;;-2.61;81.69
73338;BME280;61575;49.908;35.556;2024-02-21T00:36:59;100152.28;;;-2.63;82.08
73338;BME280;61575;49.908;35.556;2024-02-21T00:40:02;100158.53;;;-2.66;82.27
73338;BME280;61575;49.908;35.556;2024-02-21T00:43:03;100147.16;;;-2.66;81.65
73338;BME280;61575;49.908;35.556;2024-02-21T00:46:06;100137.41;;;-2.64;82.00
73338;BME280;61575;49.908;35.556;2024-02-21T00:49:09;100134.72;;;-2.63;82.21
73338;BME280;61575;49.908;35.556;2024-02-21T00:52:11;100135.72;;;-2.65;81.65
73338;BME280;61575;49.908;35.556;2024-02-21T00:55:13;100130.94;;;-2.57;81.91
73338;BME280;61575;49.908;35.556;2024-02-21T00:58:15;100124.69;;;-2.55;81.29
73338;BME280;61575;49.908;35.556;2024-02-21T01:01:24;100125.97;;;-2.63;81.68
73338;BME280;61575;49.908;35.556;2024-02-21T01:04:27;100123.13;;;-2.59;81.90
73338;BME280;61575;49.908;35.556;2024-02-21T01:07:29;100118.59;;;-2.55;81.68
73338;BME280;61575;49.908;35.556;2024-02-21T01:10:31;100124.78;;;-2.56;82.00
73338;BME280;61575;49.908;35.556;2024-02-21T01:13:33;100129.25;;;-2.58;82.28
73338;BME280;61575;49.908;35.556;2024-02-21T01:16:35;100120.56;;;-2.60;82.07
73338;BME280;61575;49.908;35.556;2024-02-21T01:19:37;100112.41;;;-2.54;82.20
73338;BME280;61575;49.908;35.556;2024-02-21T01:22:40;100108.34;;;-2.61;82.20
73338;BME280;61575;49.908;35.556;2024-02-21T01:25:42;100109.28;;;-2.62;82.24
73338;BME280;61575;49.908;35.556;2024-02-21T01:28:44;100107.66;;;-2.65;82.37
73338;BME280;61575;49.908;35.556;2024-02-21T01:31:46;100100.75;;;-2.67;83.01
73338;BME280;61575;49.908;35.556;2024-02-21T01:34:49;100099.84;;;-2.66;83.32
73338;BME280;61575;49.908;35.556;2024-02-21T01:37:51;100099.97;;;-2.69;83.29
73338;BME280;61575;49.908;35.556;2024-02-21T01:40:53;100095.72;;;-2.72;83.51
73338;BME280;61575;49.908;35.556;2024-02-21T01:43:55;100092.09;;;-2.69;83.34
73338;BME280;61575;49.908;35.556;2024-02-21T01:46:58;100091.47;;;-2.75;83.95
73338;BME280;61575;49.908;35.556;2024-02-21T01:50:00;100092.25;;;-2.72;84.02
73338;BME280;61575;49.908;35.556;2024-02-21T01:53:04;100080.03;;;-2.74;84.38
73338;BME280;61575;49.908;35.556;2024-02-21T01:56:07;100080.03;;;-2.74;84.54
73338;BME280;61575;49.908;35.556;2024-02-21T01:59:09;100085.28;;;-2.74;84.29
73338;BME280;61575;49.908;35.556;2024-02-21T02:02:11;100079.94;;;-2.72;84.62
73338;BME280;61575;49.908;35.556;2024-02-21T02:05:15;100073.75;;;-2.71;84.09
73338;BME280;61575;49.908;35.556;2024-02-21T02:08:19;100083.22;;;-2.67;84.46
73338;BME280;61575;49.908;35.556;2024-02-21T02:11:25;100069.66;;;-2.77;84.85
73338;BME280;61575;49.908;35.556;2024-02-21T02:14:27;100069.00;;;-2.82;84.96
73338;BME280;61575;49.908;35.556;2024-02-21T02:17:30;100071.44;;;-2.77;85.18
73338;BME280;61575;49.908;35.556;2024-02-21T02:20:32;100064.31;;;-2.75;85.12
73338;BME280;61575;49.908;35.556;2024-02-21T02:23:35;100072.28;;;-2.77;84.72
73338;BME280;61575;49.908;35.556;2024-02-21T02:26:37;100067.88;;;-2.76;85.00
73338;BME280;61575;49.908;35.556;2024-02-21T02:29:39;100061.91;;;-2.80;85.63
73338;BME280;61575;49.908;35.556;2024-02-21T02:32:44;100063.63;;;-2.79;85.53
73338;BME280;61575;49.908;35.556;2024-02-21T02:35:47;100075.91;;;-2.79;85.23
73338;BME280;61575;49.908;35.556;2024-02-21T02:38:49;100075.19;;;-2.83;85.80
73338;BME280;61575;49.908;35.556;2024-02-21T02:41:51;100072.72;;;-2.86;85.61
73338;BME280;61575;49.908;35.556;2024-02-21T02:44:53;100070.72;;;-2.81;85.70
73338;BME280;61575;49.908;35.556;2024-02-21T02:47:56;100067.53;;;-2.87;86.09
73338;BME280;61575;49.908;35.556;2024-02-21T02:50:59;100075.47;;;-2.89;86.08
73338;BME280;61575;49.908;35.556;2024-02-21T02:54:02;100079.09;;;-2.91;86.17
73338;BME280;61575;49.908;35.556;2024-02-21T02:57:04;100081.44;;;-2.85;86.21
73338;BME280;61575;49.908;35.556;2024-02-21T03:00:07;100079.19;;;-2.93;86.37
73338;BME280;61575;49.908;35.556;2024-02-21T03:03:10;100080.81;;;-2.90;86.01
73338;BME280;61575;49.908;35.556;2024-02-21T03:06:12;100078.81;;;-2.85;85.96
73338;BME280;61575;49.908;35.556;2024-02-21T03:09:15;100077.25;;;-2.89;86.23
73338;BME280;61575;49.908;35.556;2024-02-21T03:12:17;100076.25;;;-2.87;86.47
73338;BME280;61575;49.908;35.556;2024-02-21T03:15:26;100066.66;;;-2.88;86.74
73338;BME280;61575;49.908;35.556;2024-02-21T03:18:28;100075.47;;;-2.89;86.69
73338;BME280;61575;49.908;35.556;2024-02-21T03:21:30;100068.66;;;-2.93;87.03
73338;BME280;61575;49.908;35.556;2024-02-21T03:24:32;100074.00;;;-2.94;87.18
73338;BME280;61575;49.908;35.556;2024-02-21T03:27:34;100065.91;;;-2.90;86.76
73338;BME280;61575;49.908;35.556;2024-02-21T03:30:36;100057.78;;;-2.85;86.46
73338;BME280;61575;49.908;35.556;2024-02-21T03:33:39;100059.63;;;-2.87;86.44
73338;BME280;61575;49.908;35.556;2024-02-21T03:36:42;100058.72;;;-2.86;86.15
73338;BME280;61575;49.908;35.556;2024-02-21T03:39:44;100056.22;;;-2.89;86.30
73338;BME280;61575;49.908;35.556;2024-02-21T03:42:46;100058.94;;;-2.91;86.67
73338;BME280;61575;49.908;35.556;2024-02-21T03:45:48;100053.75;;;-2.92;86.75
73338;BME280;61575;49.908;35.556;2024-02-21T03:48:50;100050.06;;;-2.88;86.64
73338;BME280;61575;49.908;35.556;2024-02-21T03:51:52;100057.66;;;-2.82;87.00
73338;BME280;61575;49.908;35.556;2024-02-21T03:54:54;100054.16;;;-2.83;86.61
73338;BME280;61575;49.908;35.556;2024-02-21T03:57:56;100069.00;;;-2.82;86.51
73338;BME280;61575;49.908;35.556;2024-02-21T04:01:01;100058.50;;;-2.82;86.28
73338;BME280;61575;49.908;35.556;2024-02-21T04:04:04;100044.38;;;-2.79;86.00
73338;BME280;61575;49.908;35.556;2024-02-21T04:07:06;100044.72;;;-2.87;85.79
73338;BME280;61575;49.908;35.556;2024-02-21T04:10:08;100048.34;;;-2.89;86.25
73338;BME280;61575;49.908;35.556;2024-02-21T04:13:11;100051.41;;;-2.80;86.32
73338;BME280;61575;49.908;35.556;2024-02-21T04:16:13;100050.47;;;-2.79;86.06
73338;BME280;61575;49.908;35.556;2024-02-21T04:19:15;100042.47;;;-2.94;85.88
73338;BME280;61575;49.908;35.556;2024-02-21T04:22:17;100045.66;;;-2.88;85.70
73338;BME280;61575;49.908;35.556;2024-02-21T04:25:20;100052.53;;;-2.85;85.63
73338;BME280;61575;49.908;35.556;2024-02-21T04:28:22;100045.72;;;-2.89;86.08
73338;BME280;61575;49.908;35.556;2024-02-21T04:31:24;100044.59;;;-2.84;85.86
73338;BME280;61575;49.908;35.556;2024-02-21T04:34:26;100039.53;;;-2.88;85.06
73338;BME280;61575;49.908;35.556;2024-02-21T04:37:29;100044.50;;;-2.82;85.17
73338;BME280;61575;49.908;35.556;2024-02-21T04:40:31;100048.69;;;-2.78;84.87
73338;BME280;61575;49.908;35.556;2024-02-21T04:43:33;100055.88;;;-2.82;84.93
73338;BME280;61575;49.908;35.556;2024-02-21T04:46:35;100049.53;;;-2.78;84.79
73338;BME280;61575;49.908;35.556;2024-02-21T04:49:38;100046.00;;;-2.77;84.68
73338;BME280;61575;49.908;35.556;2024-02-21T04:52:40;100047.41;;;-2.69;84.56
73338;BME280;61575;49.908;35.556;2024-02-21T04:55:42;100050.09;;;-2.71;84.25
73338;BME280;61575;49.908;35.556;2024-02-21T04:58:44;100048.47;;;-2.74;83.97
73338;BME280;61575;49.908;35.556;2024-02-21T05:01:46;100047.00;;;-2.79;84.82
73338;BME280;61575;49.908;35.556;2024-02-21T05:04:48;100052.09;;;-2.76;84.69
73338;BME280;61575;49.908;35.556;2024-02-21T05:07:51;100046.47;;;-2.68;84.71
73338;BME280;61575;49.908;35.556;2024-02-21T05:10:53;100047.56;;;-2.72;84.52
73338;BME280;61575;49.908;35.556;2024-02-21T05:13:56;100047.25;;;-2.66;84.45
73338;BME280;61575;49.908;35.556;2024-02-21T05:16:58;100045.69;;;-2.70;84.71
73338;BME280;61575;49.908;35.556;2024-02-21T05:20:00;100047.31;;;-2.68;83.85
73338;BME280;61575;49.908;35.556;2024-02-21T05:23:02;100048.19;;;-2.67;83.39
73338;BME280;61575;49.908;35.556;2024-02-21T05:26:05;100047.09;;;-2.63;83.81
73338;BME280;61575;49.908;35.556;2024-02-21T05:29:07;100039.00;;;-2.59;83.04
73338;BME280;61575;49.908;35.556;2024-02-21T05:32:09;100045.59;;;-2.50;82.45
73338;BME280;61575;49.908;35.556;2024-02-21T05:35:11;100031.28;;;-2.45;82.26
73338;BME280;61575;49.908;35.556;2024-02-21T05:38:14;100040.97;;;-2.45;82.15
73338;BME280;61575;49.908;35.556;2024-02-21T05:41:16;100032.84;;;-2.41;81.80
73338;BME280;61575;49.908;35.556;2024-02-21T05:44:19;100034.69;;;-2.43;81.65
73338;BME280;61575;49.908;35.556;2024-02-21T05:47:21;100042.34;;;-2.38;81.39
73338;BME280;61575;49.908;35.556;2024-02-21T05:50:23;100047.00;;;-2.26;81.00
73338;BME280;61575;49.908;35.556;2024-02-21T05:53:25;100044.31;;;-2.24;80.58
73338;BME280;61575;49.908;35.556;2024-02-21T05:56:27;100041.53;;;-2.21;80.45
73338;BME280;61575;49.908;35.556;2024-02-21T05:59:30;100039.66;;;-2.19;80.38
73338;BME280;61575;49.908;35.556;2024-02-21T06:02:32;100044.69;;;-2.15;79.86
73338;BME280;61575;49.908;35.556;2024-02-21T06:05:38;100045.94;;;-2.04;79.92
73338;BME280;61575;49.908;35.556;2024-02-21T06:08:40;100041.38;;;-2.01;79.76
73338;BME280;61575;49.908;35.556;2024-02-21T06:11:42;100037.72;;;-1.98;79.76
73338;BME280;61575;49.908;35.556;2024-02-21T06:14:47;100042.59;;;-1.91;79.63
73338;BME280;61575;49.908;35.556;2024-02-21T06:17:49;100050.25;;;-1.86;79.28
73338;BME280;61575;49.908;35.556;2024-02-21T06:20:51;100034.94;;;-1.78;78.95
73338;BME280;61575;49.908;35.556;2024-02-21T06:23:53;100039.97;;;-1.73;78.68
73338;BME280;61575;49.908;35.556;2024-02-21T06:26:55;100043.81;;;-1.63;78.47
73338;BME280;61575;49.908;35.556;2024-02-21T06:29:57;100037.38;;;-1.58;77.76
73338;BME280;61575;49.908;35.556;2024-02-21T06:32:59;100032.44;;;-1.64;77.34
73338;BME280;61575;49.908;35.556;2024-02-21T06:36:01;100037.69;;;-1.64;77.42
73338;BME280;61575;49.908;35.556;2024-02-21T06:39:03;100029.03;;;-1.66;77.45
73338;BME280;61575;49.908;35.556;2024-02-21T06:42:09;100028.34;;;-1.69;76.67
73338;BME280;61575;49.908;35.556;2024-02-21T06:45:11;100044.06;;;-1.68;76.40
73338;BME280;61575;49.908;35.556;2024-02-21T06:48:13;100030.72;;;-1.65;76.21
73338;BME280;61575;49.908;35.556;2024-02-21T06:51:16;100027.00;;;-1.61;75.87
73338;BME280;61575;49.908;35.556;2024-02-21T06:54:18;100025.13;;;-1.59;75.66
73338;BME280;61575;49.908;35.556;2024-02-21T06:57:20;100023.34;;;-1.58;76.03
73338;BME280;61575;49.908;35.556;2024-02-21T07:00:22;100030.34;;;-1.41;75.43
73338;BME280;61575;49.908;35.556;2024-02-21T07:03:26;100033.44;;;-1.33;75.56
73338;BME280;61575;49.908;35.556;2024-02-21T07:06:29;100026.31;;;-1.31;75.20
73338;BME280;61575;49.908;35.556;2024-02-21T07:09:36;100028.34;;;-1.36;74.37
73338;BME280;61575;49.908;35.556;2024-02-21T07:12:38;100031.31;;;-1.27;74.27
73338;BME280;61575;49.908;35.556;2024-02-21T07:15:45;100035.16;;;-1.17;74.82
73338;BME280;61575;49.908;35.556;2024-02-21T07:18:47;100043.16;;;-1.18;73.86
73338;BME280;61575;49.908;35.556;2024-02-21T07:21:49;100044.25;;;-1.22;73.90
73338;BME280;61575;49.908;35.556;2024-02-21T07:24:51;100040.59;;;-1.20;73.63
73338;BME280;61575;49.908;35.556;2024-02-21T07:27:53;100048.50;;;-1.20;73.44
73338;BME280;61575;49.908;35.556;2024-02-21T07:30:55;100057.41;;;-1.06;73.59
73338;BME280;61575;49.908;35.556;2024-02-21T07:33:57;100049.53;;;-0.91;73.73
73338;BME280;61575;49.908;35.556;2024-02-21T07:36:59;100051.66;;;-0.82;73.25
73338;BME280;61575;49.908;35.556;2024-02-21T07:40:01;100054.44;;;-0.85;73.05
73338;BME280;61575;49.908;35.556;2024-02-21T07:43:03;100051.47;;;-0.79;73.05
73338;BME280;61575;49.908;35.556;2024-02-21T07:46:05;100046.19;;;-0.63;73.25
73338;BME280;61575;49.908;35.556;2024-02-21T07:49:07;100043.97;;;-0.55;72.98
73338;BME280;61575;49.908;35.556;2024-02-21T07:52:09;100053.84;;;-0.58;72.43
73338;BME280;61575;49.908;35.556;2024-02-21T07:55:11;100051.38;;;-0.61;71.92
73338;BME280;61575;49.908;35.556;2024-02-21T07:58:13;100058.19;;;-0.57;72.50
73338;BME280;61575;49.908;35.556;2024-02-21T08:01:19;100057.84;;;-0.51;72.53
73338;BME280;61575;49.908;35.556;2024-02-21T08:04:24;100065.16;;;-0.56;73.06
73338;BME280;61575;49.908;35.556;2024-02-21T08:07:27;100053.09;;;-0.60;73.06
73338;BME280;61575;49.908;35.556;2024-02-21T08:10:31;100055.81;;;-0.62;73.38
73338;BME280;61575;49.908;35.556;2024-02-21T08:13:33;100060.22;;;-0.62;73.92
73338;BME280;61575;49.908;35.556;2024-02-21T08:16:35;100059.56;;;-0.66;74.56
73338;BME280;61575;49.908;35.556;2024-02-21T08:19:37;100053.09;;;-0.76;75.29
73338;BME280;61575;49.908;35.556;2024-02-21T08:22:39;100052.59;;;-0.83;76.17
73338;BME280;61575;49.908;35.556;2024-02-21T08:25:41;100050.97;;;-0.85;76.04
73338;BME280;61575;49.908;35.556;2024-02-21T08:28:43;100048.94;;;-0.80;76.21
73338;BME280;61575;49.908;35.556;2024-02-21T08:31:45;100046.38;;;-0.82;78.37
73338;BME280;61575;49.908;35.556;2024-02-21T08:34:47;100049.44;;;-0.73;78.21
73338;BME280;61575;49.908;35.556;2024-02-21T08:37:49;100055.72;;;-0.60;78.27
73338;BME280;61575;49.908;35.556;2024-02-21T08:40:51;100054.69;;;-0.42;78.03
73338;BME280;61575;49.908;35.556;2024-02-21T08:43:54;100059.53;;;-0.34;77.52
73338;BME280;61575;49.908;35.556;2024-02-21T08:46:56;100063.00;;;-0.34;77.38
73338;BME280;61575;49.908;35.556;2024-02-21T08:50:00;100063.03;;;-0.50;77.68
73338;BME280;61575;49.908;35.556;2024-02-21T08:53:16;100062.00;;;-0.47;78.39
73338;BME280;61575;49.908;35.556;2024-02-21T08:56:17;100057.09;;;-0.53;78.79
73338;BME280;61575;49.908;35.556;2024-02-21T08:59:20;100050.69;;;-0.49;78.91
73338;BME280;61575;49.908;35.556;2024-02-21T09:02:22;100052.91;;;-0.57;79.48
73338;BME280;61575;49.908;35.556;2024-02-21T09:05:25;100050.25;;;-0.41;79.73
73338;BME280;61575;49.908;35.556;2024-02-21T09:08:28;100049.06;;;-0.36;79.41
73338;BME280;61575;49.908;35.556;2024-02-21T09:11:31;100046.16;;;-0.31;79.67
73338;BME280;61575;49.908;35.556;2024-02-21T09:14:33;100047.50;;;-0.24;79.90
73338;BME280;61575;49.908;35.556;2024-02-21T09:17:35;100037.16;;;-0.13;79.91
73338;BME280;61575;49.908;35.556;2024-02-21T09:20:38;100040.06;;;-0.18;80.19
73338;BME280;61575;49.908;35.556;2024-02-21T09:23:40;100042.56;;;-0.30;80.34
73338;BME280;61575;49.908;35.556;2024-02-21T09:26:42;100034.03;;;-0.20;80.43
73338;BME280;61575;49.908;35.556;2024-02-21T09:29:43;100041.19;;;-0.22;80.72
73338;BME280;61575;49.908;35.556;2024-02-21T09:32:46;100035.88;;;-0.36;81.21
73338;BME280;61575;49.908;35.556;2024-02-21T09:35:48;100020.44;;;-0.28;81.64
73338;BME280;61575;49.908;35.556;2024-02-21T09:38:52;100035.34;;;-0.27;81.75
73338;BME280;61575;49.908;35.556;2024-02-21T09:41:59;100025.81;;;-0.29;82.08
73338;BME280;61575;49.908;35.556;2024-02-21T09:45:08;100023.00;;;-0.26;82.03
73338;BME280;61575;49.908;35.556;2024-02-21T09:51:27;100019.94;;;-0.34;83.01
73338;BME280;61575;49.908;35.556;2024-02-21T09:54:30;100015.28;;;-0.15;82.90
73338;BME280;61575;49.908;35.556;2024-02-21T09:57:34;100015.81;;;0.06;82.41
73338;BME280;61575;49.908;35.556;2024-02-21T10:00:37;100012.59;;;0.01;82.21
73338;BME280;61575;49.908;35.556;2024-02-21T10:03:39;100011.75;;;0.00;82.27
73338;BME280;61575;49.908;35.556;2024-02-21T10:06:41;100009.75;;;-0.10;82.64
73338;BME280;61575;49.908;35.556;2024-02-21T10:09:43;100006.69;;;-0.19;83.04
73338;BME280;61575;49.908;35.556;2024-02-21T10:12:50;100002.63;;;-0.24;83.47
73338;BME280;61575;49.908;35.556;2024-02-21T10:16:03;99999.28;;;-0.12;83.35
73338;BME280;61575;49.908;35.556;2024-02-21T10:19:05;100003.03;;;-0.16;83.50
73338;BME280;61575;49.908;35.556;2024-02-21T10:22:08;100005.28;;;-0.24;83.65
73338;BME280;61575;49.908;35.556;2024-02-21T10:25:12;99997.66;;;-0.15;83.43
73338;BME280;61575;49.908;35.556;2024-02-21T10:28:15;99996.19;;;-0.04;83.59
73338;BME280;61575;49.908;35.556;2024-02-21T10:31:25;99987.91;;;0.02;83.29
73338;BME280;61575;49.908;35.556;2024-02-21T10:34:28;99991.88;;;0.09;83.00
73338;BME280;61575;49.908;35.556;2024-02-21T10:37:30;99995.09;;;0.14;83.15
73338;BME280;61575;49.908;35.556;2024-02-21T10:40:33;99989.03;;;0.12;83.05
73338;BME280;61575;49.908;35.556;2024-02-21T10:43:40;99990.09;;;0.24;83.29
73338;BME280;61575;49.908;35.556;2024-02-21T10:46:43;99987.91;;;0.16;83.11
73338;BME280;61575;49.908;35.556;2024-02-21T10:49:46;99984.34;;;0.17;83.65
73338;BME280;61575;49.908;35.556;2024-02-21T10:53:05;99982.06;;;0.11;83.75
73338;BME280;61575;49.908;35.556;2024-02-21T10:56:33;99973.94;;;0.14;83.85
73338;BME280;61575;49.908;35.556;2024-02-21T10:59:39;99971.50;;;0.25;84.02
73338;BME280;61575;49.908;35.556;2024-02-21T11:02:42;99962.72;;;0.25;83.74
73338;BME280;61575;49.908;35.556;2024-02-21T11:05:45;99959.91;;;0.28;84.02
73338;BME280;61575;49.908;35.556;2024-02-21T11:08:47;99960.09;;;0.25;84.01
73338;BME280;61575;49.908;35.556;2024-02-21T11:11:52;99957.44;;;0.25;84.07
73338;BME280;61575;49.908;35.556;2024-02-21T11:15:06;99950.38;;;0.25;84.18
73338;BME280;61575;49.908;35.556;2024-02-21T11:18:08;99945.28;;;0.36;83.94
73338;BME280;61575;49.908;35.556;2024-02-21T11:21:10;99951.50;;;0.35;84.43
73338;BME280;61575;49.908;35.556;2024-02-21T11:24:12;99945.84;;;0.41;83.77
73338;BME280;61575;49.908;35.556;2024-02-21T11:27:21;99942.47;;;0.25;83.89
73338;BME280;61575;49.908;35.556;2024-02-21T11:30:29;99938.97;;;0.25;84.13
73338;BME280;61575;49.908;35.556;2024-02-21T11:33:33;99938.69;;;0.15;84.60
73338;BME280;61575;49.908;35.556;2024-02-21T11:36:50;99940.75;;;0.24;84.96
73338;BME280;61575;49.908;35.556;2024-02-21T11:39:52;99940.75;;;0.24;84.97
73338;BME280;61575;49.908;35.556;2024-02-21T11:42:59;99929.63;;;0.19;84.87
73338;BME280;61575;49.908;35.556;2024-02-21T11:46:01;99934.91;;;0.19;85.16
73338;BME280;61575;49.908;35.556;2024-02-21T11:49:07;99927.16;;;0.16;85.04
73338;BME280;61575;49.908;35.556;2024-02-21T11:52:09;99939.25;;;0.06;85.12
73338;BME280;61575;49.908;35.556;2024-02-21T11:55:11;99932.16;;;0.06;85.52
73338;BME280;61575;49.908;35.556;2024-02-21T11:58:14;99938.09;;;0.10;85.55
73338;BME280;61575;49.908;35.556;2024-02-21T12:01:16;99941.31;;;0.15;85.50
73338;BME280;61575;49.908;35.556;2024-02-21T12:04:19;99931.69;;;0.14;85.38
73338;BME280;61575;49.908;35.556;2024-02-21T12:07:22;99926.69;;;0.09;85.54
73338;BME280;61575;49.908;35.556;2024-02-21T12:10:26;99926.97;;;0.05;85.69
73338;BME280;61575;49.908;35.556;2024-02-21T12:13:32;99933.03;;;0.07;85.80
73338;BME280;61575;49.908;35.556;2024-02-21T12:16:34;99924.44;;;0.03;85.98
73338;BME280;61575;49.908;35.556;2024-02-21T12:19:38;99920.94;;;0.03;86.29
73338;BME280;61575;49.908;35.556;2024-02-21T12:22:43;99925.19;;;0.05;86.32
73338;BME280;61575;49.908;35.556;2024-02-21T12:25:45;99921.22;;;-0.02;86.98
73338;BME280;61575;49.908;35.556;2024-02-21T12:28:48;99925.47;;;0.01;87.22
73338;BME280;61575;49.908;35.556;2024-02-21T12:31:50;99928.78;;;0.04;87.47
73338;BME280;61575;49.908;35.556;2024-02-21T12:34:53;99919.16;;;0.03;87.02
73338;BME280;61575;49.908;35.556;2024-02-21T12:37:55;99929.06;;;-0.00;87.46
73338;BME280;61575;49.908;35.556;2024-02-21T12:40:57;99926.78;;;0.08;87.25
73338;BME280;61575;49.908;35.556;2024-02-21T12:43:59;99924.25;;;0.06;87.32
73338;BME280;61575;49.908;35.556;2024-02-21T12:47:02;99917.56;;;0.15;87.62
73338;BME280;61575;49.908;35.556;2024-02-21T12:50:05;99914.16;;;0.13;87.60
73338;BME280;61575;49.908;35.556;2024-02-21T12:53:09;99917.66;;;0.13;87.57
73338;BME280;61575;49.908;35.556;2024-02-21T12:56:23;99915.19;;;0.10;87.77
73338;BME280;61575;49.908;35.556;2024-02-21T12:59:35;99910.28;;;0.18;87.95
73338;BME280;61575;49.908;35.556;2024-02-21T13:02:37;99918.59;;;0.12;87.92
73338;BME280;61575;49.908;35.556;2024-02-21T13:05:41;99924.81;;;0.26;87.92
73338;BME280;61575;49.908;35.556;2024-02-21T13:08:43;99908.03;;;0.27;87.70
73338;BME280;61575;49.908;35.556;2024-02-21T13:11:46;99905.47;;;0.25;87.77
73338;BME280;61575;49.908;35.556;2024-02-21T13:14:49;99913.50;;;0.09;89.11
73338;BME280;61575;49.908;35.556;2024-02-21T13:17:51;99907.00;;;0.15;89.77
73338;BME280;61575;49.908;35.556;2024-02-21T13:20:53;99908.97;;;0.11;89.35
73338;BME280;61575;49.908;35.556;2024-02-21T13:23:55;99906.63;;;0.07;89.54
73338;BME280;61575;49.908;35.556;2024-02-21T13:26:58;99903.78;;;0.10;89.54
73338;BME280;61575;49.908;35.556;2024-02-21T13:30:00;99900.97;;;0.13;89.45
73338;BME280;61575;49.908;35.556;2024-02-21T13:33:09;99900.66;;;0.03;89.65
73338;BME280;61575;49.908;35.556;2024-02-21T13:36:12;99899.53;;;0.07;89.97
73338;BME280;61575;49.908;35.556;2024-02-21T13:39:14;99898.97;;;0.02;90.47
73338;BME280;61575;49.908;35.556;2024-02-21T13:42:18;99898.22;;;0.14;89.99
73338;BME280;61575;49.908;35.556;2024-02-21T13:45:21;99898.88;;;0.18;89.73
73338;BME280;61575;49.908;35.556;2024-02-21T13:48:23;99898.13;;;0.16;89.27
73338;BME280;61575;49.908;35.556;2024-02-21T13:51:25;99904.16;;;0.18;89.61
73338;BME280;61575;49.908;35.556;2024-02-21T13:54:27;99900.00;;;0.14;89.55
73338;BME280;61575;49.908;35.556;2024-02-21T13:57:29;99908.03;;;0.12;89.78
73338;BME280;61575;49.908;35.556;2024-02-21T14:00:31;99907.94;;;0.14;90.02
73338;BME280;61575;49.908;35.556;2024-02-21T14:03:36;99903.88;;;0.08;90.05
73338;BME280;61575;49.908;35.556;2024-02-21T14:06:38;99902.28;;;0.06;90.08
73338;BME280;61575;49.908;35.556;2024-02-21T14:09:45;99903.78;;;0.10;90.27
73338;BME280;61575;49.908;35.556;2024-02-21T14:12:47;99906.31;;;-0.03;90.66
73338;BME280;61575;49.908;35.556;2024-02-21T14:15:52;99903.88;;;-0.06;90.97
73338;BME280;61575;49.908;35.556;2024-02-21T14:18:54;99915.94;;;-0.02;91.05
73338;BME280;61575;49.908;35.556;2024-02-21T14:21:56;99916.69;;;-0.14;91.13
73338;BME280;61575;49.908;35.556;2024-02-21T14:24:58;99909.22;;;-0.22;91.87
73338;BME280;61575;49.908;35.556;2024-02-21T14:28:00;99906.59;;;-0.22;91.60
73338;BME280;61575;49.908;35.556;2024-02-21T14:31:03;99903.09;;;-0.22;91.86
73338;BME280;61575;49.908;35.556;2024-02-21T14:34:07;99905.66;;;-0.21;91.95
73338;BME280;61575;49.908;35.556;2024-02-21T14:37:10;99903.09;;;-0.22;91.91
73338;BME280;61575;49.908;35.556;2024-02-21T14:40:12;99899.03;;;-0.28;92.28
73338;BME280;61575;49.908;35.556;2024-02-21T14:43:14;99896.78;;;-0.34;93.02
73338;BME280;61575;49.908;35.556;2024-02-21T14:46:16;99893.28;;;-0.34;92.94
73338;BME280;61575;49.908;35.556;2024-02-21T14:49:18;99890.91;;;-0.39;93.29
73338;BME280;61575;49.908;35.556;2024-02-21T14:52:22;99892.03;;;-0.43;93.62
73338;BME280;61575;49.908;35.556;2024-02-21T14:55:26;99890.25;;;-0.42;93.37
73338;BME280;61575;49.908;35.556;2024-02-21T14:58:28;99897.88;;;-0.52;94.18
73338;BME280;61575;49.908;35.556;2024-02-21T15:01:30;99887.03;;;-0.48;94.09
73338;BME280;61575;49.908;35.556;2024-02-21T15:04:40;99886.38;;;-0.51;94.32
73338;BME280;61575;49.908;35.556;2024-02-21T15:07:42;99900.31;;;-0.49;94.14
73338;BME280;61575;49.908;35.556;2024-02-21T15:10:44;99898.81;;;-0.53;94.20
73338;BME280;61575;49.908;35.556;2024-02-21T15:13:46;99886.09;;;-0.47;94.32
73338;BME280;61575;49.908;35.556;2024-02-21T15:16:48;99897.41;;;-0.45;94.50
73338;BME280;61575;49.908;35.556;2024-02-21T15:19:50;99891.66;;;-0.51;94.21
73338;BME280;61575;49.908;35.556;2024-02-21T15:22:52;99899.38;;;-0.48;94.38
73338;BME280;61575;49.908;35.556;2024-02-21T15:25:54;99899.47;;;-0.50;94.54
73338;BME280;61575;49.908;35.556;2024-02-21T15:28:56;99902.03;;;-0.48;94.28
73338;BME280;61575;49.908;35.556;2024-02-21T15:31:59;99911.91;;;-0.52;94.26
73338;BME280;61575;49.908;35.556;2024-02-21T15:35:01;99908.94;;;-0.61;94.76
73338;BME280;61575;49.908;35.556;2024-02-21T15:38:04;99908.78;;;-0.58;95.08
73338;BME280;61575;49.908;35.556;2024-02-21T15:41:07;99912.16;;;-0.56;94.81
73338;BME280;61575;49.908;35.556;2024-02-21T15:44:09;99908.78;;;-0.58;95.19
73338;BME280;61575;49.908;35.556;2024-02-21T15:47:11;99905.38;;;-0.60;95.35
73338;BME280;61575;49.908;35.556;2024-02-21T15:50:13;99905.09;;;-0.56;95.47
73338;BME280;61575;49.908;35.556;2024-02-21T15:53:15;99904.34;;;-0.58;95.47